createdAt,value
2023-08-28T00:00:50.012Z,154032.44
2023-08-28T00:02:52.150Z,154031.16
2023-08-28T00:04:53.630Z,154019.69
2023-08-28T00:06:55.058Z,154008.25
2023-08-28T00:08:56.783Z,153963.72
2023-08-28T00:10:58.238Z,154028.63
2023-08-28T00:12:59.873Z,154050.25
2023-08-28T00:15:01.731Z,154037.50
2023-08-28T00:17:03.253Z,154050.25
2023-08-28T00:19:04.802Z,154028.63
2023-08-28T00:21:06.311Z,154052.78
2023-08-28T00:23:07.828Z,154062.94
2023-08-28T00:25:09.669Z,154046.41
2023-08-28T00:27:11.191Z,154047.69
2023-08-28T00:29:12.614Z,154052.78
2023-08-28T00:31:14.045Z,154069.34
2023-08-28T00:33:15.664Z,154115.22
2023-08-28T00:35:17.250Z,154127.91
2023-08-28T00:37:18.849Z,154177.56
2023-08-28T00:39:20.290Z,154150.84
2023-08-28T00:41:21.894Z,154145.72
2023-08-28T00:43:23.373Z,154154.66
2023-08-28T00:45:25.145Z,154147.00
2023-08-28T00:47:26.924Z,154134.28
2023-08-28T00:49:28.717Z,154106.28
2023-08-28T00:51:30.184Z,154069.34
2023-08-28T00:53:31.837Z,154087.13
2023-08-28T00:55:36.941Z,154056.56
2023-08-28T00:57:38.524Z,154071.88
2023-08-28T00:59:40.064Z,154048.97
2023-08-28T01:01:41.579Z,154059.13
2023-08-28T01:03:43.713Z,154051.53
2023-08-28T01:05:54.285Z,154085.88
2023-08-28T01:08:03.834Z,154045.16
2023-08-28T01:10:07.116Z,154027.34
2023-08-28T01:12:35.734Z,154059.13
2023-08-28T01:15:01.881Z,154076.94
2023-08-28T01:17:06.729Z,154057.84
2023-08-28T01:19:19.690Z,153954.78
2023-08-28T01:21:21.531Z,154036.22
2023-08-28T01:23:28.836Z,154027.34
2023-08-28T01:25:30.548Z,154071.88
2023-08-28T01:27:32.637Z,154045.16
2023-08-28T01:29:34.934Z,154051.53
2023-08-28T01:31:36.385Z,154036.22
2023-08-28T01:33:39.418Z,154006.97
2023-08-28T01:35:41.283Z,153998.06
2023-08-28T01:38:01.430Z,153984.06
2023-08-28T01:40:05.043Z,153968.81
2023-08-28T01:42:07.565Z,154004.44
2023-08-28T01:44:10.442Z,153972.63
2023-08-28T01:46:13.171Z,153987.91
2023-08-28T01:48:14.733Z,154004.44
2023-08-28T01:50:16.186Z,153998.06
2023-08-28T01:52:17.799Z,153996.78
2023-08-28T01:54:19.282Z,154037.50
2023-08-28T01:56:22.422Z,154056.56
2023-08-28T01:58:23.943Z,153962.44
2023-08-28T02:00:25.426Z,153995.50
2023-08-28T02:02:26.936Z,154001.88
2023-08-28T02:04:28.567Z,154009.53
2023-08-28T02:06:30.059Z,154022.22
2023-08-28T02:08:31.496Z,154065.50
2023-08-28T02:10:33.051Z,154090.97
2023-08-28T02:12:34.517Z,154055.34
2023-08-28T02:14:35.985Z,154034.94
2023-08-28T02:16:37.550Z,154041.31
2023-08-28T02:18:39.076Z,154019.69
2023-08-28T02:20:41.369Z,154029.88
2023-08-28T02:22:42.969Z,154060.41
2023-08-28T02:24:44.516Z,154038.78
2023-08-28T02:26:45.988Z,154037.50
2023-08-28T02:28:47.489Z,153994.22
2023-08-28T02:30:49.019Z,154012.06
2023-08-28T02:32:50.542Z,154037.50
2023-08-28T02:34:52.088Z,154029.88
2023-08-28T02:36:53.523Z,154008.25
2023-08-28T02:38:54.999Z,153994.22
2023-08-28T02:41:04.190Z,154009.53
2023-08-28T02:43:06.768Z,154012.06
2023-08-28T02:45:08.873Z,153968.81
2023-08-28T02:47:10.551Z,153994.22
2023-08-28T02:49:11.980Z,153987.91
2023-08-28T02:51:13.431Z,154056.56
2023-08-28T02:53:15.033Z,154045.16
2023-08-28T02:55:16.494Z,154023.50
2023-08-28T02:57:19.096Z,153963.72
2023-08-28T02:59:20.588Z,153926.84
2023-08-28T03:01:22.827Z,153953.50
2023-08-28T03:03:24.487Z,153966.25
2023-08-28T03:05:26.009Z,153968.81
2023-08-28T03:07:27.856Z,153956.06
2023-08-28T03:09:29.739Z,153921.72
2023-08-28T03:11:31.243Z,153945.91
2023-08-28T03:13:32.687Z,153895.00
2023-08-28T03:15:34.168Z,153921.72
2023-08-28T03:17:35.820Z,153912.81
2023-08-28T03:19:37.244Z,153914.06
2023-08-28T03:21:38.709Z,153915.34
2023-08-28T03:23:40.319Z,153935.72
2023-08-28T03:25:41.985Z,153935.72
2023-08-28T03:27:43.477Z,153881.03
2023-08-28T03:29:45.146Z,153891.19
2023-08-28T03:31:46.609Z,153901.38
2023-08-28T03:33:48.186Z,153891.19
2023-08-28T03:35:49.876Z,153903.94
2023-08-28T03:37:51.305Z,153925.56
2023-08-28T03:39:52.734Z,153889.94
2023-08-28T03:41:54.417Z,153878.47
2023-08-28T03:43:55.850Z,153845.38
2023-08-28T03:45:57.353Z,153826.31
2023-08-28T03:47:59.085Z,153852.97
2023-08-28T03:50:00.570Z,153816.09
2023-08-28T03:52:03.079Z,153783.06
2023-08-28T03:54:10.696Z,153755.06
2023-08-28T03:56:12.130Z,153742.38
2023-08-28T03:58:13.682Z,153716.94
2023-08-28T04:00:16.086Z,153719.47
2023-08-28T04:02:17.528Z,153725.81
2023-08-28T04:04:18.983Z,153658.47
2023-08-28T04:06:20.601Z,153709.28
2023-08-28T04:08:22.039Z,153688.94
2023-08-28T04:10:23.840Z,153682.63
2023-08-28T04:12:25.302Z,153694.06
2023-08-28T04:14:26.808Z,153678.81
2023-08-28T04:16:28.405Z,153681.34
2023-08-28T04:18:29.872Z,153706.75
2023-08-28T04:20:31.473Z,153700.41
2023-08-28T04:22:33.049Z,153723.31
2023-08-28T04:24:34.516Z,153783.06
2023-08-28T04:26:36.171Z,153758.91
2023-08-28T04:28:37.907Z,153751.25
2023-08-28T04:30:39.395Z,153794.50
2023-08-28T04:32:41.285Z,153743.66
2023-08-28T04:34:44.030Z,153761.44
2023-08-28T04:36:45.470Z,153753.81
2023-08-28T04:38:47.368Z,153743.66
2023-08-28T04:40:48.992Z,153734.72
2023-08-28T04:42:50.430Z,153705.47
2023-08-28T04:44:51.906Z,153695.31
2023-08-28T04:46:53.587Z,153667.34
2023-08-28T04:48:55.228Z,153691.50
2023-08-28T04:50:56.703Z,153683.84
2023-08-28T04:52:58.178Z,153663.50
2023-08-28T04:54:59.608Z,153727.09
2023-08-28T04:57:01.573Z,153697.88
2023-08-28T04:59:03.661Z,153688.94
2023-08-28T05:01:05.109Z,153747.44
2023-08-28T05:03:07.235Z,153757.63
2023-08-28T05:05:09.406Z,153797.03
2023-08-28T05:07:10.854Z,153863.19
2023-08-28T05:09:12.320Z,153933.16
2023-08-28T05:11:13.879Z,153962.44
2023-08-28T05:13:15.335Z,153942.09
2023-08-28T05:15:17.136Z,153942.09
2023-08-28T05:17:18.994Z,153962.44
2023-08-28T05:19:20.430Z,153963.72
2023-08-28T05:21:22.154Z,153956.06
2023-08-28T05:23:23.977Z,154012.06
2023-08-28T05:25:26.490Z,154017.13
2023-08-28T05:27:28.012Z,153990.44
2023-08-28T05:29:29.638Z,154015.84
2023-08-28T05:31:31.090Z,154028.63
2023-08-28T05:33:33.042Z,153888.69
2023-08-28T05:35:34.630Z,153859.34
2023-08-28T05:37:36.073Z,153906.47
2023-08-28T05:39:37.507Z,153883.56
2023-08-28T05:41:39.234Z,153839.00
2023-08-28T05:43:40.665Z,153814.84
2023-08-28T05:45:42.284Z,153827.59
2023-08-28T05:47:43.925Z,153772.88
2023-08-28T05:49:45.406Z,153839.00
2023-08-28T05:51:46.831Z,153939.53
2023-08-28T05:53:48.360Z,154027.34
2023-08-28T05:55:49.795Z,154069.34
2023-08-28T05:57:51.284Z,154096.13
2023-08-28T05:59:52.871Z,154125.38
2023-08-28T06:01:54.339Z,154052.78
2023-08-28T06:03:55.806Z,154056.56
2023-08-28T06:05:57.387Z,154004.44
2023-08-28T06:07:58.851Z,153931.88
2023-08-28T06:10:00.362Z,153951.00
2023-08-28T06:12:01.966Z,153931.88
2023-08-28T06:14:03.440Z,153929.38
2023-08-28T06:16:05.155Z,153959.88
2023-08-28T06:18:06.780Z,153991.72
2023-08-28T06:20:08.657Z,153936.97
2023-08-28T06:22:10.511Z,153986.63
2023-08-28T06:24:12.721Z,154088.41
2023-08-28T06:26:14.149Z,154166.09
2023-08-28T06:28:15.848Z,154154.66
2023-08-28T06:30:17.497Z,154087.13
2023-08-28T06:32:19.061Z,154144.44
2023-08-28T06:34:20.542Z,154121.53
2023-08-28T06:36:22.049Z,154164.81
2023-08-28T06:38:23.514Z,154234.84
2023-08-28T06:40:24.965Z,154303.63
2023-08-28T06:42:26.557Z,154288.31
2023-08-28T06:44:28.040Z,154225.91
2023-08-28T06:46:29.480Z,154267.94
2023-08-28T06:48:30.998Z,154353.31
2023-08-28T06:50:34.136Z,154371.13
2023-08-28T06:52:35.578Z,154578.81
2023-08-28T06:54:50.959Z,154587.75
2023-08-28T06:56:53.262Z,154422.09
2023-08-28T06:58:54.693Z,154397.88
2023-08-28T07:00:56.342Z,154462.84
2023-08-28T07:02:58.953Z,154489.63
2023-08-28T07:05:00.576Z,154499.78
2023-08-28T07:07:02.241Z,154529.16
2023-08-28T07:09:03.903Z,154437.38
2023-08-28T07:11:05.339Z,154406.81
2023-08-28T07:13:06.973Z,154461.56
2023-08-28T07:15:11.548Z,154411.88
2023-08-28T07:17:13.001Z,154339.31
2023-08-28T07:19:14.640Z,154287.03
2023-08-28T07:21:16.142Z,154281.97
2023-08-28T07:23:17.634Z,154350.75
2023-08-28T07:25:19.240Z,154420.81
2023-08-28T07:27:20.661Z,154446.31
2023-08-28T07:29:22.305Z,154433.53
2023-08-28T07:31:23.892Z,154318.94
2023-08-28T07:33:25.320Z,154433.53
2023-08-28T07:35:26.774Z,154418.25
2023-08-28T07:37:31.760Z,154368.56
2023-08-28T07:39:33.234Z,154261.59
2023-08-28T07:41:34.689Z,154233.56
2023-08-28T07:43:36.331Z,154307.44
2023-08-28T07:45:37.899Z,154439.91
2023-08-28T07:47:39.446Z,154331.66
2023-08-28T07:49:42.570Z,154461.56
2023-08-28T07:51:44.081Z,154467.97
2023-08-28T07:53:45.532Z,154408.03
2023-08-28T07:55:47.498Z,154354.56
2023-08-28T07:57:48.952Z,154324.03
2023-08-28T07:59:50.624Z,154442.47
2023-08-28T08:01:52.139Z,154547.00
2023-08-28T08:03:53.673Z,154559.72
2023-08-28T08:05:55.216Z,154555.88
2023-08-28T08:07:56.717Z,154507.50
2023-08-28T08:09:58.144Z,154575.00
2023-08-28T08:11:59.954Z,154629.81
2023-08-28T08:14:01.871Z,154632.38
2023-08-28T08:16:03.483Z,154724.16
2023-08-28T08:18:05.586Z,154775.16
2023-08-28T08:20:08.544Z,154773.91
2023-08-28T08:22:10.031Z,154743.28
2023-08-28T08:24:11.987Z,154675.72
2023-08-28T08:26:13.476Z,154576.25
2023-08-28T08:28:14.915Z,154545.72
2023-08-28T08:30:16.699Z,154577.53
2023-08-28T08:32:18.160Z,154636.16
2023-08-28T08:34:19.631Z,154721.59
2023-08-28T08:36:21.324Z,154773.91
2023-08-28T08:38:22.799Z,154615.75
2023-08-28T08:40:27.964Z,154507.50
2023-08-28T08:42:29.770Z,154571.19
2023-08-28T08:44:31.318Z,154545.72
2023-08-28T08:46:34.112Z,154544.44
2023-08-28T08:48:37.591Z,154646.38
2023-08-28T08:50:39.161Z,154711.44
2023-08-28T08:52:43.510Z,154775.16
2023-08-28T08:54:46.142Z,154823.59
2023-08-28T08:56:51.301Z,154785.34
2023-08-28T08:58:53.437Z,154707.59
2023-08-28T09:00:56.305Z,154711.44
2023-08-28T09:02:59.689Z,154826.13
2023-08-28T09:05:01.197Z,154819.78
2023-08-28T09:07:03.894Z,154877.16
2023-08-28T09:09:05.409Z,154893.78
2023-08-28T09:11:06.916Z,154767.50
2023-08-28T09:13:08.353Z,154726.72
2023-08-28T09:15:10.908Z,154776.44
2023-08-28T09:17:12.346Z,154798.13
2023-08-28T09:19:14.304Z,154713.97
2023-08-28T09:21:15.739Z,154728.00
2023-08-28T09:23:17.225Z,154648.94
2023-08-28T09:25:20.006Z,154706.31
2023-08-28T09:27:21.437Z,154645.09
2023-08-28T09:29:24.754Z,154735.66
2023-08-28T09:31:31.211Z,154639.97
2023-08-28T09:33:50.520Z,154651.47
2023-08-28T09:36:03.133Z,154705.03
2023-08-28T09:38:05.016Z,154678.22
2023-08-28T09:40:07.016Z,154702.47
2023-08-28T09:42:10.113Z,154694.81
2023-08-28T09:44:12.366Z,154750.94
2023-08-28T09:46:14.107Z,154767.50
2023-08-28T09:48:15.743Z,154702.47
2023-08-28T09:50:17.496Z,154659.09
2023-08-28T09:52:25.803Z,154553.31
2023-08-28T09:54:27.354Z,154633.66
2023-08-28T09:56:32.181Z,154553.31
2023-08-28T09:58:36.311Z,154545.72
2023-08-28T10:00:39.190Z,154549.53
2023-08-28T10:02:40.964Z,154577.53
2023-08-28T10:04:44.451Z,154585.19
2023-08-28T10:06:47.000Z,154559.72
2023-08-28T10:08:48.745Z,154599.22
2023-08-28T10:10:52.892Z,154580.09
2023-08-28T10:12:54.665Z,154585.19
2023-08-28T10:14:57.708Z,154561.00
2023-08-28T10:17:05.835Z,154634.94
2023-08-28T10:19:19.622Z,154594.09
2023-08-28T10:21:21.992Z,154675.72
2023-08-28T10:23:25.443Z,154728.00
2023-08-28T10:25:30.052Z,154904.00
2023-08-28T10:27:32.634Z,154909.06
2023-08-28T10:29:35.473Z,154873.31
2023-08-28T10:31:38.502Z,154895.06
2023-08-28T10:33:40.954Z,154947.31
2023-08-28T10:35:45.153Z,154956.28
2023-08-28T10:37:47.070Z,155123.44
2023-08-28T10:39:50.263Z,155074.94
2023-08-28T10:41:51.853Z,155069.88
2023-08-28T10:43:54.195Z,155128.56
2023-08-28T10:45:58.279Z,155187.25
2023-08-28T10:47:59.836Z,155059.59
2023-08-28T10:50:02.304Z,155177.00
2023-08-28T10:52:07.464Z,154986.91
2023-08-28T10:54:12.381Z,155053.19
2023-08-28T10:56:13.872Z,155008.53
2023-08-28T10:58:16.127Z,154921.84
2023-08-28T11:00:18.373Z,155021.31
2023-08-28T11:02:21.499Z,155040.47
2023-08-28T11:04:25.407Z,155073.66
2023-08-28T11:06:46.495Z,155059.59
2023-08-28T11:08:48.267Z,155077.50
2023-08-28T11:11:12.865Z,155173.22
2023-08-28T11:13:21.753Z,155151.53
2023-08-28T11:15:31.599Z,155069.88
2023-08-28T11:17:33.502Z,155141.28
2023-08-28T11:20:08.381Z,155219.13
2023-08-28T11:22:09.883Z,155193.63
2023-08-28T11:24:27.402Z,155256.22
2023-08-28T11:26:30.352Z,155308.53
2023-08-28T11:28:42.799Z,155274.09
2023-08-28T11:30:44.600Z,155260.00
2023-08-28T11:32:48.868Z,155238.25
2023-08-28T11:34:50.660Z,155289.38
2023-08-28T11:36:52.093Z,155349.38
2023-08-28T11:38:55.349Z,155271.53
2023-08-28T11:41:00.121Z,155231.91
2023-08-28T11:43:05.094Z,155317.47
2023-08-28T11:45:07.671Z,155228.06
2023-08-28T11:47:09.148Z,155179.56
2023-08-28T11:49:10.757Z,155085.16
2023-08-28T11:51:12.322Z,155211.50
2023-08-28T11:53:13.741Z,155150.25
2023-08-28T11:55:15.636Z,155155.31
2023-08-28T11:57:20.190Z,155311.09
2023-08-28T11:59:21.641Z,155466.88
2023-08-28T12:01:25.915Z,155294.50
2023-08-28T12:03:27.595Z,155233.19
2023-08-28T12:05:29.170Z,155128.56
2023-08-28T12:07:30.619Z,155069.88
2023-08-28T12:09:33.204Z,155018.78
2023-08-28T12:11:35.425Z,154966.50
2023-08-28T12:13:38.625Z,155012.38
2023-08-28T12:15:40.191Z,155055.75
2023-08-28T12:17:41.742Z,154983.06
2023-08-28T12:19:43.614Z,155063.44
2023-08-28T12:21:45.085Z,155123.44
2023-08-28T12:23:50.195Z,155017.50
2023-08-28T12:25:55.025Z,154957.56
2023-08-28T12:28:11.145Z,155029.00
2023-08-28T12:30:19.873Z,155020.06
2023-08-28T12:32:21.719Z,154994.53
2023-08-28T12:34:28.614Z,155110.69
2023-08-28T12:36:40.572Z,155101.75
2023-08-28T12:38:49.134Z,155148.97
2023-08-28T12:40:52.004Z,155148.97
2023-08-28T12:42:56.300Z,155212.78
2023-08-28T12:44:57.735Z,155124.72
2023-08-28T12:46:59.652Z,155104.31
2023-08-28T12:49:01.261Z,155208.94
2023-08-28T12:51:05.460Z,155147.69
2023-08-28T12:53:07.126Z,155087.72
2023-08-28T12:55:08.889Z,155066.00
2023-08-28T12:57:10.322Z,155081.34
2023-08-28T12:59:11.774Z,155055.75
2023-08-28T13:01:13.463Z,155148.97
2023-08-28T13:03:15.038Z,155140.00
2023-08-28T13:05:16.644Z,155168.09
2023-08-28T13:07:18.339Z,155105.59
2023-08-28T13:09:21.067Z,155214.06
2023-08-28T13:11:22.613Z,155179.56
2023-08-28T13:13:24.256Z,155238.25
2023-08-28T13:15:25.704Z,155314.94
2023-08-28T13:17:27.182Z,155345.53
2023-08-28T13:19:28.812Z,155274.09
2023-08-28T13:21:30.482Z,155265.13
2023-08-28T13:23:33.039Z,155355.78
2023-08-28T13:25:34.627Z,155294.50
2023-08-28T13:27:36.365Z,155344.25
2023-08-28T13:29:37.840Z,155286.84
2023-08-28T13:31:39.563Z,155206.38
2023-08-28T13:33:41.165Z,155148.97
2023-08-28T13:35:42.951Z,155105.59
2023-08-28T13:37:44.496Z,155219.13
2023-08-28T13:39:45.905Z,155221.69
2023-08-28T13:41:47.340Z,155185.97
2023-08-28T13:43:48.998Z,155225.50
2023-08-28T13:45:51.166Z,155060.88
2023-08-28T13:47:52.687Z,154988.13
2023-08-28T13:49:54.422Z,155101.75
2023-08-28T13:51:55.851Z,155119.59
2023-08-28T13:53:57.278Z,155086.44
2023-08-28T13:55:58.733Z,155051.91
2023-08-28T13:58:00.166Z,155059.59
2023-08-28T14:00:01.605Z,155114.47
2023-08-28T14:02:03.140Z,155094.06
2023-08-28T14:04:04.952Z,155183.41
2023-08-28T14:06:06.984Z,155072.38
2023-08-28T14:08:08.442Z,155155.31
2023-08-28T14:10:10.860Z,155055.75
2023-08-28T14:12:12.295Z,154998.38
2023-08-28T14:14:14.173Z,155040.47
2023-08-28T14:16:15.740Z,154991.97
2023-08-28T14:18:17.276Z,155021.31
2023-08-28T14:20:18.894Z,154972.84
2023-08-28T14:22:20.316Z,154974.13
2023-08-28T14:24:21.744Z,154961.38
2023-08-28T14:26:23.367Z,155006.03
2023-08-28T14:28:24.779Z,155092.78
2023-08-28T14:30:26.206Z,155051.91
2023-08-28T14:32:27.739Z,155090.28
2023-08-28T14:34:29.291Z,155106.84
2023-08-28T14:36:30.722Z,155082.59
2023-08-28T14:38:32.609Z,155016.22
2023-08-28T14:40:46.181Z,155113.22
2023-08-28T14:42:49.608Z,155067.25
2023-08-28T14:44:51.128Z,155054.47
2023-08-28T14:46:52.712Z,155036.63
2023-08-28T14:48:54.203Z,154914.19
2023-08-28T14:50:55.886Z,154906.50
2023-08-28T14:52:57.345Z,154920.56
2023-08-28T14:54:58.787Z,154928.19
2023-08-28T14:57:00.219Z,155003.47
2023-08-28T14:59:01.664Z,154957.56
2023-08-28T15:01:03.122Z,154861.88
2023-08-28T15:03:05.643Z,154958.84
2023-08-28T15:05:08.856Z,155008.53
2023-08-28T15:07:10.292Z,155068.59
2023-08-28T15:09:11.825Z,155068.59
2023-08-28T15:11:13.302Z,154993.25
2023-08-28T15:13:14.829Z,154976.69
2023-08-28T15:15:16.437Z,154993.25
2023-08-28T15:17:17.864Z,155006.03
2023-08-28T15:19:19.295Z,155027.72
2023-08-28T15:21:20.821Z,154975.41
2023-08-28T15:23:22.707Z,154932.03
2023-08-28T15:25:24.154Z,154965.22
2023-08-28T15:27:25.711Z,154952.44
2023-08-28T15:29:27.140Z,154985.63
2023-08-28T15:31:28.721Z,155040.47
2023-08-28T15:33:30.306Z,155050.63
2023-08-28T15:35:31.962Z,155059.59
2023-08-28T15:37:33.497Z,155044.31
2023-08-28T15:39:34.929Z,154972.84
2023-08-28T15:41:36.465Z,155003.47
2023-08-28T15:43:37.940Z,154934.59
2023-08-28T15:45:50.971Z,154948.59
2023-08-28T15:47:52.569Z,154901.44
2023-08-28T15:49:54.038Z,154895.06
2023-08-28T15:51:55.684Z,154952.44
2023-08-28T15:53:57.166Z,154947.31
2023-08-28T15:55:59.268Z,154919.28
2023-08-28T15:58:00.838Z,154889.94
2023-08-28T16:00:02.434Z,154955.00
2023-08-28T16:02:04.008Z,154934.59
2023-08-28T16:04:05.832Z,154916.75
2023-08-28T16:06:10.545Z,154930.75
2023-08-28T16:08:12.319Z,154911.63
2023-08-28T16:10:13.960Z,154835.09
2023-08-28T16:12:15.452Z,154881.00
2023-08-28T16:14:17.077Z,154879.72
2023-08-28T16:16:18.665Z,154900.16
2023-08-28T16:18:20.328Z,154929.47
2023-08-28T16:20:21.801Z,154907.78
2023-08-28T16:22:23.331Z,154938.41
2023-08-28T16:24:24.781Z,154898.91
2023-08-28T16:26:26.218Z,154900.16
2023-08-28T16:28:27.898Z,154856.75
2023-08-28T16:30:29.404Z,154824.88
2023-08-28T16:32:31.101Z,154865.66
2023-08-28T16:34:32.723Z,154878.44
2023-08-28T16:36:34.149Z,154896.34
2023-08-28T16:38:35.572Z,154863.16
2023-08-28T16:40:37.079Z,154833.81
2023-08-28T16:42:38.543Z,154840.19
2023-08-28T16:44:39.970Z,154782.78
2023-08-28T16:46:41.846Z,154777.72
2023-08-28T16:48:43.299Z,154768.78
2023-08-28T16:50:44.794Z,154771.34
2023-08-28T16:52:46.555Z,154719.03
2023-08-28T16:54:48.042Z,154696.09
2023-08-28T16:56:49.454Z,154699.94
2023-08-28T16:58:50.998Z,154703.75
2023-08-28T17:00:52.535Z,154702.47
2023-08-28T17:02:54.285Z,154611.97
2023-08-28T17:04:55.936Z,154609.41
2023-08-28T17:07:00.570Z,154601.75
2023-08-28T17:09:02.301Z,154613.25
2023-08-28T17:11:03.834Z,154597.94
2023-08-28T17:13:05.397Z,154610.69
2023-08-28T17:15:07.631Z,154586.47
2023-08-28T17:17:09.291Z,154566.09
2023-08-28T17:19:10.703Z,154561.00
2023-08-28T17:21:12.222Z,154539.31
2023-08-28T17:23:13.657Z,154559.72
2023-08-28T17:25:15.158Z,154554.59
2023-08-28T17:27:16.613Z,154575.00
2023-08-28T17:29:18.275Z,154536.78
2023-08-28T17:31:20.279Z,154529.16
2023-08-28T17:33:22.940Z,154480.69
2023-08-28T17:35:24.406Z,154495.97
2023-08-28T17:37:25.897Z,154515.09
2023-08-28T17:39:27.346Z,154475.56
2023-08-28T17:41:28.836Z,154445.03
2023-08-28T17:43:30.260Z,154459.03
2023-08-28T17:45:31.713Z,154447.59
2023-08-28T17:47:33.223Z,154457.75
2023-08-28T17:49:34.687Z,154490.84
2023-08-28T17:51:37.228Z,154462.84
2023-08-28T17:53:39.078Z,154487.06
2023-08-28T17:55:40.542Z,154434.81
2023-08-28T17:57:42.031Z,154483.22
2023-08-28T17:59:43.495Z,154443.75
2023-08-28T18:01:45.267Z,154376.22
2023-08-28T18:03:47.465Z,154390.22
2023-08-28T18:05:52.118Z,154439.91
2023-08-28T18:07:53.551Z,154367.28
2023-08-28T18:09:55.005Z,154414.44
2023-08-28T18:11:56.521Z,154451.34
2023-08-28T18:13:57.968Z,154416.97
2023-08-28T18:15:59.498Z,154396.59
2023-08-28T18:18:01.242Z,154372.41
2023-08-28T18:20:02.809Z,154401.72
2023-08-28T18:22:04.437Z,154408.03
2023-08-28T18:24:06.399Z,154369.84
2023-08-28T18:26:08.061Z,154387.66
2023-08-28T18:28:12.433Z,154377.50
2023-08-28T18:30:15.288Z,154344.41
2023-08-28T18:32:16.749Z,154330.38
2023-08-28T18:34:18.469Z,154392.78
2023-08-28T18:36:20.030Z,154406.81
2023-08-28T18:38:21.876Z,154339.31
2023-08-28T18:40:23.386Z,154335.47
2023-08-28T18:42:24.831Z,154316.38
2023-08-28T18:44:26.244Z,154335.47
2023-08-28T18:46:27.694Z,154353.31
2023-08-28T18:48:29.137Z,154371.13
2023-08-28T18:50:30.607Z,154335.47
2023-08-28T18:52:32.053Z,154303.63
2023-08-28T18:54:33.812Z,154278.13
2023-08-28T18:56:35.274Z,154297.25
2023-08-28T18:58:36.705Z,154301.06
2023-08-28T19:00:38.274Z,154313.81
2023-08-28T19:02:39.759Z,154354.56
2023-08-28T19:04:41.203Z,154363.50
2023-08-28T19:06:42.714Z,154332.94
2023-08-28T19:08:44.240Z,154298.50
2023-08-28T19:10:45.748Z,154285.75
2023-08-28T19:12:47.372Z,154278.13
2023-08-28T19:14:48.867Z,154280.69
2023-08-28T19:16:50.300Z,154259.03
2023-08-28T19:18:51.900Z,154250.13
2023-08-28T19:21:01.967Z,154289.56
2023-08-28T19:23:04.703Z,154283.25
2023-08-28T19:25:06.554Z,154259.03
2023-08-28T19:27:08.019Z,154242.47
2023-08-28T19:29:09.487Z,154253.94
2023-08-28T19:31:11.274Z,154299.78
2023-08-28T19:33:12.869Z,154345.63
2023-08-28T19:35:14.633Z,154340.59
2023-08-28T19:37:16.074Z,154373.69
2023-08-28T19:39:17.559Z,154381.34
2023-08-28T19:41:19.001Z,154380.06
2023-08-28T19:43:20.618Z,154391.50
2023-08-28T19:45:22.098Z,154429.69
2023-08-28T19:47:24.000Z,154354.56
2023-08-28T19:49:25.596Z,154349.47
2023-08-28T19:51:27.030Z,154341.88
2023-08-28T19:53:28.464Z,154343.13
2023-08-28T19:55:30.355Z,154363.50
2023-08-28T19:57:31.869Z,154357.13
2023-08-28T19:59:33.301Z,154324.03
2023-08-28T20:01:34.993Z,154346.91
2023-08-28T20:03:36.533Z,154354.56
2023-08-28T20:05:38.067Z,154373.69
2023-08-28T20:07:39.815Z,154343.13
2023-08-28T20:09:41.253Z,154316.38
2023-08-28T20:11:42.699Z,154256.50
2023-08-28T20:13:44.234Z,154262.81
2023-08-28T20:15:49.432Z,154223.38
2023-08-28T20:17:51.062Z,154269.22
2023-08-28T20:19:55.262Z,154228.47
2023-08-28T20:21:56.799Z,154252.66
2023-08-28T20:23:58.320Z,154228.47
2023-08-28T20:25:59.852Z,154256.50
2023-08-28T20:28:01.385Z,154246.28
2023-08-28T20:30:02.904Z,154241.22
2023-08-28T20:32:08.268Z,154283.25
2023-08-28T20:34:09.768Z,154276.88
2023-08-28T20:36:11.193Z,154246.28
2023-08-28T20:38:12.803Z,154251.38
2023-08-28T20:40:14.821Z,154267.94
2023-08-28T20:42:16.460Z,154246.28
2023-08-28T20:44:17.996Z,154219.59
2023-08-28T20:46:19.548Z,154185.19
2023-08-28T20:48:22.120Z,154224.63
2023-08-28T20:50:23.895Z,154211.94
2023-08-28T20:52:25.323Z,154223.38
2023-08-28T20:54:26.761Z,154222.09
2023-08-28T20:56:28.475Z,154200.50
2023-08-28T20:58:29.902Z,154181.34
2023-08-28T21:00:31.360Z,154196.66
2023-08-28T21:02:33.257Z,154227.19
2023-08-28T21:04:34.744Z,154223.38
2023-08-28T21:06:36.405Z,154238.69
2023-08-28T21:08:38.075Z,154214.47
2023-08-28T21:10:39.514Z,154213.19
2023-08-28T21:12:41.001Z,154195.38
2023-08-28T21:14:42.517Z,154210.66
2023-08-28T21:16:43.942Z,154189.00
2023-08-28T21:18:45.388Z,154147.00
2023-08-28T21:20:46.847Z,154199.22
2023-08-28T21:22:49.970Z,154172.47
2023-08-28T21:24:51.411Z,154180.06
2023-08-28T21:26:52.936Z,154136.84
2023-08-28T21:28:54.386Z,154125.38
2023-08-28T21:31:04.241Z,154143.16
2023-08-28T21:33:06.082Z,154135.56
2023-08-28T21:35:08.905Z,154107.56
2023-08-28T21:37:10.388Z,154111.38
2023-08-28T21:39:11.967Z,154102.44
2023-08-28T21:41:13.516Z,154118.97
2023-08-28T21:43:14.937Z,154141.91
2023-08-28T21:45:16.571Z,154078.22
2023-08-28T21:47:18.023Z,154105.00
2023-08-28T21:49:19.453Z,154101.16
2023-08-28T21:51:21.352Z,154070.59
2023-08-28T21:53:22.792Z,154102.44
2023-08-28T21:55:24.222Z,154083.31
2023-08-28T21:57:26.185Z,154108.81
2023-08-28T21:59:27.629Z,154056.56
2023-08-28T22:01:29.959Z,154108.81
2023-08-28T22:03:31.715Z,154136.84
2023-08-28T22:05:33.179Z,154102.44
2023-08-28T22:07:34.607Z,154097.34
2023-08-28T22:09:36.196Z,154138.13
2023-08-28T22:11:37.631Z,154141.91
2023-08-28T22:13:39.041Z,154085.88
2023-08-28T22:15:40.721Z,154085.88
2023-08-28T22:17:42.173Z,154096.13
2023-08-28T22:19:43.701Z,154055.34
2023-08-28T22:21:45.283Z,154062.94
2023-08-28T22:23:46.727Z,154060.41
2023-08-28T22:25:48.205Z,154101.16
2023-08-28T22:27:52.067Z,154110.09
2023-08-28T22:29:53.495Z,154078.22
2023-08-28T22:31:54.954Z,154093.53
2023-08-28T22:33:56.474Z,154080.75
2023-08-28T22:35:57.918Z,154076.94
2023-08-28T22:37:59.384Z,154050.25
2023-08-28T22:40:01.005Z,154037.50
2023-08-28T22:42:02.419Z,154076.94
2023-08-28T22:44:04.119Z,154098.63
2023-08-28T22:46:05.677Z,154078.22
2023-08-28T22:48:07.734Z,154074.44
2023-08-28T22:50:09.788Z,154115.22
2023-08-28T22:52:12.115Z,154090.97
2023-08-28T22:54:13.536Z,154042.59
2023-08-28T22:56:14.959Z,154059.13
2023-08-28T22:58:16.734Z,154040.03
2023-08-28T23:00:19.127Z,154065.50
2023-08-28T23:02:20.574Z,154097.34
2023-08-28T23:04:22.335Z,154094.78
2023-08-28T23:06:24.453Z,154125.38
2023-08-28T23:08:25.957Z,154071.88
2023-08-28T23:10:27.559Z,154102.44
2023-08-28T23:12:29.166Z,154096.13
2023-08-28T23:14:30.627Z,154066.78
2023-08-28T23:16:32.319Z,154078.22